createdAt,value
2023-05-16T00:01:53.323Z,18.81
2023-05-16T00:04:20.641Z,18.70
2023-05-16T00:06:47.665Z,18.63
2023-05-16T00:09:14.574Z,18.59
2023-05-16T00:11:41.560Z,18.55
2023-05-16T00:14:08.604Z,18.51
2023-05-16T00:16:37.502Z,18.47
2023-05-16T00:19:05.064Z,18.43
2023-05-16T00:21:32.153Z,18.38
2023-05-16T00:23:59.105Z,18.31
2023-05-16T00:26:26.554Z,18.28
2023-05-16T00:28:53.579Z,18.24
2023-05-16T00:31:20.882Z,18.23
2023-05-16T00:33:48.213Z,18.21
2023-05-16T00:36:15.270Z,18.22
2023-05-16T00:38:42.267Z,18.20
2023-05-16T00:41:09.258Z,18.16
2023-05-16T00:43:36.885Z,18.13
2023-05-16T00:46:03.894Z,18.12
2023-05-16T00:48:30.962Z,18.13
2023-05-16T00:50:58.063Z,18.14
2023-05-16T00:53:25.117Z,18.12
2023-05-16T00:55:52.120Z,18.08
2023-05-16T00:58:19.157Z,18.06
2023-05-16T01:00:48.807Z,18.03
2023-05-16T01:03:16.180Z,18.01
2023-05-16T01:05:43.460Z,18.00
2023-05-16T01:08:10.448Z,17.95
2023-05-16T01:10:40.692Z,17.93
2023-05-16T01:13:24.995Z,17.93
2023-05-16T01:16:01.629Z,17.92
2023-05-16T01:18:28.851Z,17.87
2023-05-16T01:20:59.897Z,17.88
2023-05-16T01:23:31.265Z,17.87
2023-05-16T01:26:06.858Z,17.89
2023-05-16T01:28:33.933Z,17.89
2023-05-16T01:31:01.288Z,17.88
2023-05-16T01:33:29.448Z,17.92
2023-05-16T01:36:00.041Z,17.94
2023-05-16T01:38:27.573Z,17.92
2023-05-16T01:40:57.750Z,17.91
2023-05-16T01:43:35.169Z,17.88
2023-05-16T01:46:09.562Z,17.86
2023-05-16T01:48:40.465Z,17.82
2023-05-16T01:51:07.502Z,17.81
2023-05-16T01:53:39.379Z,17.83
2023-05-16T01:56:09.224Z,17.82
2023-05-16T01:58:36.973Z,17.80
2023-05-16T02:01:04.757Z,17.78
2023-05-16T02:03:32.411Z,17.85
2023-05-16T02:05:59.648Z,17.88
2023-05-16T02:08:27.719Z,17.86
2023-05-16T02:10:54.853Z,17.88
2023-05-16T02:13:21.933Z,17.91
2023-05-16T02:15:49.175Z,17.92
2023-05-16T02:18:17.024Z,17.96
2023-05-16T02:20:44.125Z,17.97
2023-05-16T02:23:11.215Z,18.02
2023-05-16T02:25:38.353Z,18.10
2023-05-16T02:28:05.737Z,18.20
2023-05-16T02:30:33.233Z,18.33
2023-05-16T02:33:00.383Z,18.47
2023-05-16T02:35:27.835Z,18.64
2023-05-16T02:37:56.107Z,18.84
2023-05-16T02:40:24.978Z,19.10
2023-05-16T02:42:52.216Z,19.44
2023-05-16T02:45:19.288Z,19.68
2023-05-16T02:47:46.519Z,19.80
2023-05-16T02:50:13.931Z,19.95
2023-05-16T02:52:41.310Z,20.10
2023-05-16T02:55:21.645Z,20.30
2023-05-16T02:57:51.269Z,20.54
2023-05-16T03:00:18.978Z,20.80
2023-05-16T03:02:47.383Z,20.95
2023-05-16T03:05:14.584Z,21.10
2023-05-16T03:07:41.681Z,21.28
2023-05-16T03:10:09.164Z,21.49
2023-05-16T03:12:36.326Z,21.67
2023-05-16T03:15:04.405Z,21.84
2023-05-16T03:17:31.976Z,22.07
2023-05-16T03:19:59.128Z,22.31
2023-05-16T03:22:26.253Z,22.50
2023-05-16T03:24:53.355Z,22.66
2023-05-16T03:27:20.610Z,22.94
2023-05-16T03:29:50.098Z,23.34
2023-05-16T03:32:17.290Z,23.80
2023-05-16T03:34:44.460Z,24.19
2023-05-16T03:37:11.806Z,24.46
2023-05-16T03:39:38.897Z,24.54
2023-05-16T03:42:06.087Z,24.60
2023-05-16T03:44:33.829Z,24.69
2023-05-16T03:47:00.896Z,25.02
2023-05-16T03:49:30.947Z,25.46
2023-05-16T03:51:58.263Z,25.99
2023-05-16T03:54:25.314Z,26.51
2023-05-16T03:56:52.420Z,26.93
2023-05-16T03:59:19.544Z,27.34
2023-05-16T04:01:46.738Z,27.71
2023-05-16T04:04:14.462Z,28.10
2023-05-16T04:06:41.542Z,28.54
2023-05-16T04:09:08.692Z,29.00
2023-05-16T04:11:36.633Z,29.39
2023-05-16T04:14:03.763Z,29.77
2023-05-16T04:16:30.938Z,30.14
2023-05-16T04:18:58.109Z,30.51
2023-05-16T04:21:25.226Z,30.78
2023-05-16T04:23:52.327Z,31.34
2023-05-16T04:26:22.144Z,31.65
2023-05-16T04:28:49.244Z,31.83
2023-05-16T04:31:16.795Z,32.18
2023-05-16T04:33:44.031Z,32.47
2023-05-16T04:36:11.247Z,32.75
2023-05-16T04:38:38.308Z,33.15
2023-05-16T04:41:05.376Z,33.46
2023-05-16T04:43:32.598Z,33.67
2023-05-16T04:45:59.751Z,33.86
2023-05-16T04:48:26.942Z,33.99
2023-05-16T04:50:54.107Z,34.19
2023-05-16T04:53:21.772Z,34.39
2023-05-16T04:55:48.886Z,34.57
2023-05-16T04:58:16.185Z,34.90
2023-05-16T05:00:43.390Z,35.26
2023-05-16T05:03:10.621Z,35.57
2023-05-16T05:05:37.964Z,35.66
2023-05-16T05:08:05.289Z,35.72
2023-05-16T05:10:32.468Z,35.92
2023-05-16T05:12:59.526Z,36.05
2023-05-16T05:15:27.222Z,36.15
2023-05-16T05:17:54.618Z,36.29
2023-05-16T05:20:21.979Z,36.26
2023-05-16T05:22:49.201Z,36.31
2023-05-16T05:25:17.235Z,36.63
2023-05-16T05:27:44.370Z,36.77
2023-05-16T05:30:11.734Z,36.98
2023-05-16T05:32:38.917Z,37.13
2023-05-16T05:35:06.784Z,37.10
2023-05-16T05:37:33.992Z,36.95
2023-05-16T05:40:01.822Z,36.84
2023-05-16T05:42:29.234Z,36.82
2023-05-16T05:44:56.683Z,36.94
2023-05-16T05:47:24.267Z,37.14
2023-05-16T05:49:51.399Z,37.35
2023-05-16T05:52:18.480Z,37.54
2023-05-16T05:54:45.615Z,37.86
2023-05-16T05:57:12.828Z,38.03
2023-05-16T05:59:40.006Z,38.03
2023-05-16T06:02:07.974Z,38.01
2023-05-16T06:04:35.336Z,38.06
2023-05-16T06:07:02.490Z,38.29
2023-05-16T06:09:29.617Z,38.40
2023-05-16T06:11:56.859Z,38.41
2023-05-16T06:14:23.907Z,38.32
2023-05-16T06:16:51.084Z,38.47
2023-05-16T06:19:19.392Z,38.70
2023-05-16T06:21:47.472Z,38.62
2023-05-16T06:24:15.295Z,38.68
2023-05-16T06:26:42.892Z,38.86
2023-05-16T06:29:10.039Z,38.97
2023-05-16T06:31:37.165Z,39.04
2023-05-16T06:34:04.446Z,39.19
2023-05-16T06:36:31.638Z,39.17
2023-05-16T06:38:58.902Z,39.35
2023-05-16T06:41:26.887Z,39.30
2023-05-16T06:43:54.062Z,39.09
2023-05-16T06:46:21.359Z,38.70
2023-05-16T06:48:48.988Z,38.24
2023-05-16T06:51:16.538Z,38.14
2023-05-16T06:53:43.921Z,37.67
2023-05-16T06:56:11.161Z,37.39
2023-05-16T06:58:40.518Z,37.39
2023-05-16T07:01:07.756Z,37.11
2023-05-16T07:03:35.197Z,36.62
2023-05-16T07:06:02.581Z,35.68
2023-05-16T07:08:29.845Z,35.33
2023-05-16T07:10:57.065Z,35.36
2023-05-16T07:13:24.251Z,35.26
2023-05-16T07:15:51.391Z,35.23
2023-05-16T07:18:18.819Z,35.13
2023-05-16T07:20:46.342Z,35.07
2023-05-16T07:23:13.581Z,35.28
2023-05-16T07:25:40.776Z,35.49
2023-05-16T07:28:07.860Z,35.86
2023-05-16T07:30:35.074Z,36.15
2023-05-16T07:33:02.345Z,36.49
2023-05-16T07:35:29.755Z,36.96
2023-05-16T07:37:57.082Z,37.20
2023-05-16T07:40:28.545Z,37.30
2023-05-16T07:42:56.038Z,37.21
2023-05-16T07:45:23.132Z,37.24
2023-05-16T07:47:50.291Z,37.32
2023-05-16T07:50:17.377Z,37.20
2023-05-16T07:52:44.386Z,37.42
2023-05-16T07:55:11.577Z,37.64
2023-05-16T07:57:38.592Z,37.76
2023-05-16T08:00:06.074Z,37.83
2023-05-16T08:02:39.181Z,37.90
2023-05-16T08:05:06.893Z,38.12
2023-05-16T08:07:34.146Z,38.26
2023-05-16T08:10:01.214Z,38.43
2023-05-16T08:12:28.258Z,38.51
2023-05-16T08:14:57.407Z,38.47
2023-05-16T08:17:24.584Z,38.10
2023-05-16T08:19:51.686Z,37.85
2023-05-16T08:22:18.910Z,37.90
2023-05-16T08:24:46.234Z,37.98
2023-05-16T08:27:13.673Z,37.95
2023-05-16T08:29:40.913Z,37.86
2023-05-16T08:32:08.905Z,37.54
2023-05-16T08:34:36.964Z,37.76
2023-05-16T08:37:03.963Z,38.12
2023-05-16T08:39:31.060Z,38.32
2023-05-16T08:41:59.176Z,38.01
2023-05-16T08:44:27.415Z,38.16
2023-05-16T08:46:55.373Z,38.32
2023-05-16T08:49:22.596Z,38.19
2023-05-16T08:51:52.144Z,38.23
2023-05-16T08:54:19.358Z,38.41
2023-05-16T08:56:46.699Z,38.61
2023-05-16T08:59:13.904Z,38.58
2023-05-16T09:01:41.598Z,38.78
2023-05-16T09:04:09.701Z,38.93
2023-05-16T09:06:37.408Z,38.94
2023-05-16T09:09:07.970Z,38.80
2023-05-16T09:11:36.936Z,38.42
2023-05-16T09:14:05.898Z,37.94
2023-05-16T09:16:32.974Z,37.89
2023-05-16T09:19:00.757Z,38.01
2023-05-16T09:21:29.071Z,38.34
2023-05-16T09:23:56.512Z,38.57
2023-05-16T09:26:23.736Z,38.73
2023-05-16T09:28:53.712Z,38.86
2023-05-16T09:31:22.249Z,38.91
2023-05-16T09:33:51.001Z,39.06
2023-05-16T09:36:18.220Z,39.22
2023-05-16T09:38:45.865Z,39.29
2023-05-16T09:41:13.128Z,39.18
2023-05-16T09:43:42.004Z,38.67
2023-05-16T09:46:09.585Z,38.20
2023-05-16T09:48:36.815Z,38.09
2023-05-16T09:51:06.564Z,38.16
2023-05-16T09:53:34.246Z,38.13
2023-05-16T09:56:02.528Z,38.19
2023-05-16T09:58:33.062Z,38.12
2023-05-16T10:01:00.231Z,38.02
2023-05-16T10:03:27.428Z,37.80
2023-05-16T10:05:54.999Z,37.42
2023-05-16T10:08:22.772Z,37.24
2023-05-16T10:10:53.770Z,37.10
2023-05-16T10:13:22.296Z,36.91
2023-05-16T10:15:49.697Z,36.64
2023-05-16T10:18:18.624Z,36.37
2023-05-16T10:20:49.427Z,36.23
2023-05-16T10:23:17.375Z,36.22
2023-05-16T10:25:44.843Z,36.10
2023-05-16T10:28:12.647Z,35.94
2023-05-16T10:30:44.465Z,35.53
2023-05-16T10:33:12.560Z,35.32
2023-05-16T10:35:40.037Z,35.25
2023-05-16T10:38:08.282Z,35.11
2023-05-16T10:40:36.190Z,34.84
2023-05-16T10:43:04.265Z,34.61
2023-05-16T10:45:32.046Z,34.40
2023-05-16T10:48:00.233Z,33.96
2023-05-16T10:50:44.039Z,33.67
2023-05-16T10:53:31.761Z,33.37
2023-05-16T10:55:59.024Z,33.04
2023-05-16T10:58:36.441Z,32.77
2023-05-16T11:01:15.900Z,32.41
2023-05-16T11:04:04.674Z,32.17
2023-05-16T11:06:35.457Z,31.80
2023-05-16T11:09:05.958Z,31.52
2023-05-16T11:11:52.110Z,31.38
2023-05-16T11:14:23.551Z,31.17
2023-05-16T11:16:55.655Z,30.97
2023-05-16T11:19:31.322Z,30.76
2023-05-16T11:22:08.411Z,30.56
2023-05-16T11:24:36.459Z,30.37
2023-05-16T11:27:07.316Z,30.22
2023-05-16T11:29:35.242Z,30.05
2023-05-16T11:32:03.239Z,29.96
2023-05-16T11:34:32.072Z,29.92
2023-05-16T11:37:00.551Z,29.78
2023-05-16T11:39:28.027Z,29.75
2023-05-16T11:41:57.585Z,29.75
2023-05-16T11:44:24.717Z,29.73
2023-05-16T11:46:54.783Z,29.70
2023-05-16T11:49:21.973Z,29.67
2023-05-16T11:51:49.986Z,29.55
2023-05-16T11:54:17.248Z,29.45
2023-05-16T11:56:44.425Z,29.32
2023-05-16T11:59:11.649Z,29.25
2023-05-16T12:01:39.273Z,28.96
2023-05-16T12:04:10.942Z,28.86
2023-05-16T12:06:43.474Z,28.84
2023-05-16T12:09:17.562Z,28.75
2023-05-16T12:11:46.155Z,28.54
2023-05-16T12:14:13.643Z,28.55
2023-05-16T12:16:42.634Z,28.41
2023-05-16T12:19:09.913Z,28.20
2023-05-16T12:21:38.198Z,28.16
2023-05-16T12:24:05.586Z,28.25
2023-05-16T12:26:33.863Z,28.30
2023-05-16T12:29:03.626Z,28.29
2023-05-16T12:31:32.539Z,28.26
2023-05-16T12:34:00.054Z,28.16
2023-05-16T12:36:27.557Z,28.17
2023-05-16T12:38:57.792Z,28.19
2023-05-16T12:41:24.879Z,28.20
2023-05-16T12:43:52.083Z,28.21
2023-05-16T12:46:20.333Z,28.23
2023-05-16T12:48:48.598Z,28.13
2023-05-16T12:51:19.430Z,27.55
2023-05-16T12:54:01.279Z,27.54
2023-05-16T12:56:39.181Z,27.56
2023-05-16T12:59:08.764Z,27.69
2023-05-16T13:01:36.316Z,27.76
2023-05-16T13:04:05.152Z,27.90
2023-05-16T13:06:44.942Z,28.01
2023-05-16T13:09:19.547Z,28.02
2023-05-16T13:11:47.101Z,28.01
2023-05-16T13:14:14.273Z,27.93
2023-05-16T13:16:41.653Z,27.81
2023-05-16T13:19:09.657Z,27.70
2023-05-16T13:21:36.980Z,27.71
2023-05-16T13:24:04.325Z,27.77
2023-05-16T13:26:31.477Z,27.76
2023-05-16T13:28:58.609Z,27.79
2023-05-16T13:31:25.817Z,27.78
2023-05-16T13:33:53.322Z,27.82
2023-05-16T13:36:20.575Z,27.84
2023-05-16T13:38:48.522Z,27.79
2023-05-16T13:41:15.923Z,27.73
2023-05-16T13:43:43.059Z,27.70
2023-05-16T13:46:10.220Z,27.61
2023-05-16T13:48:37.337Z,27.56
2023-05-16T13:51:04.460Z,27.60
2023-05-16T13:53:31.612Z,27.64
2023-05-16T13:55:58.810Z,27.66
2023-05-16T13:58:27.411Z,27.65
2023-05-16T14:00:54.570Z,27.64
2023-05-16T14:03:23.579Z,27.69
2023-05-16T14:05:52.100Z,27.68
2023-05-16T14:08:19.240Z,27.68
2023-05-16T14:10:46.348Z,27.70
2023-05-16T14:13:13.436Z,27.69
2023-05-16T14:15:40.847Z,27.68
2023-05-16T14:18:08.482Z,27.69
2023-05-16T14:20:36.031Z,27.64
2023-05-16T14:23:03.234Z,27.55
2023-05-16T14:25:30.592Z,27.49
2023-05-16T14:27:58.220Z,27.35
2023-05-16T14:30:25.562Z,27.17
2023-05-16T14:32:52.971Z,27.06
2023-05-16T14:35:20.260Z,26.91
2023-05-16T14:37:48.337Z,26.78
2023-05-16T14:40:15.950Z,26.78
2023-05-16T14:42:43.346Z,26.75
2023-05-16T14:45:11.087Z,26.69
2023-05-16T14:47:38.567Z,26.58
2023-05-16T14:50:07.426Z,26.57
2023-05-16T14:52:34.543Z,26.57
2023-05-16T14:55:01.696Z,26.53
2023-05-16T14:57:28.922Z,26.43
2023-05-16T14:59:56.041Z,26.38
2023-05-16T15:02:23.186Z,26.39
2023-05-16T15:04:50.511Z,26.36
2023-05-16T15:07:17.669Z,26.35
2023-05-16T15:09:44.853Z,26.32
2023-05-16T15:12:12.017Z,26.19
2023-05-16T15:14:39.179Z,26.15
2023-05-16T15:17:08.758Z,26.12
2023-05-16T15:19:36.327Z,26.04
2023-05-16T15:22:03.509Z,26.02
2023-05-16T15:24:30.737Z,25.98
2023-05-16T15:26:58.274Z,25.96
2023-05-16T15:29:26.432Z,25.97
2023-05-16T15:31:53.604Z,25.98
2023-05-16T15:34:20.993Z,25.95
2023-05-16T15:36:48.294Z,25.91
2023-05-16T15:39:16.379Z,25.84
2023-05-16T15:41:56.864Z,25.78
2023-05-16T15:44:30.965Z,25.75
2023-05-16T15:46:58.109Z,25.77
2023-05-16T15:49:25.293Z,25.74
2023-05-16T15:51:52.906Z,25.71
2023-05-16T15:54:20.122Z,25.64
2023-05-16T15:56:47.287Z,25.60
2023-05-16T15:59:14.591Z,25.55
2023-05-16T16:01:41.791Z,25.54
2023-05-16T16:04:09.151Z,25.53
2023-05-16T16:06:36.521Z,25.52
2023-05-16T16:09:04.371Z,25.50
2023-05-16T16:11:31.543Z,25.43
2023-05-16T16:13:58.720Z,25.38
2023-05-16T16:16:26.271Z,25.34
2023-05-16T16:18:53.836Z,25.37
2023-05-16T16:21:21.082Z,25.33
2023-05-16T16:23:48.154Z,25.32
2023-05-16T16:26:15.685Z,25.22
2023-05-16T16:28:43.133Z,25.11
2023-05-16T16:31:11.220Z,25.03
2023-05-16T16:33:38.396Z,24.93
2023-05-16T16:36:06.113Z,24.94
2023-05-16T16:38:33.269Z,24.94
2023-05-16T16:41:00.705Z,24.91
2023-05-16T16:43:27.987Z,24.88
2023-05-16T16:45:57.681Z,24.86
2023-05-16T16:48:25.203Z,24.78
2023-05-16T16:50:52.679Z,24.77
2023-05-16T16:53:19.806Z,24.74
2023-05-16T16:55:47.139Z,24.69
2023-05-16T16:58:14.265Z,24.63
2023-05-16T17:00:41.576Z,24.57
2023-05-16T17:03:09.955Z,24.55
2023-05-16T17:05:37.200Z,24.51
2023-05-16T17:08:04.782Z,24.50
2023-05-16T17:10:44.279Z,24.50
2023-05-16T17:13:14.408Z,24.50
2023-05-16T17:15:44.250Z,24.54
2023-05-16T17:18:11.476Z,24.59
2023-05-16T17:20:38.737Z,24.56
2023-05-16T17:23:05.863Z,24.51
2023-05-16T17:25:33.043Z,24.46
2023-05-16T17:28:00.217Z,24.42
2023-05-16T17:30:27.654Z,24.36
2023-05-16T17:32:55.179Z,24.29
2023-05-16T17:35:22.587Z,24.28
2023-05-16T17:37:50.828Z,24.29
2023-05-16T17:40:18.165Z,24.23
2023-05-16T17:42:45.675Z,24.17
2023-05-16T17:45:13.244Z,24.10
2023-05-16T17:47:40.478Z,24.07
2023-05-16T17:50:09.928Z,24.05
2023-05-16T17:52:38.277Z,23.99
2023-05-16T17:55:06.032Z,23.94
2023-05-16T17:57:34.501Z,23.91
2023-05-16T18:00:02.036Z,23.94
2023-05-16T18:02:32.644Z,23.89
2023-05-16T18:05:00.054Z,23.93
2023-05-16T18:07:27.462Z,23.90
2023-05-16T18:09:54.694Z,23.97
2023-05-16T18:12:22.313Z,23.98
2023-05-16T18:14:49.616Z,23.97
2023-05-16T18:17:16.749Z,23.95
2023-05-16T18:19:45.568Z,23.87
2023-05-16T18:22:15.650Z,23.85
2023-05-16T18:51:17.244Z,23.37
2023-05-16T18:58:16.086Z,23.30
2023-05-16T19:05:15.118Z,23.28
2023-05-16T19:08:59.286Z,23.31
2023-05-16T19:44:45.377Z,23.27
2023-05-16T19:51:08.160Z,23.25
2023-05-16T19:53:36.993Z,23.30
2023-05-16T19:56:12.373Z,23.35
2023-05-16T19:58:39.857Z,23.63
2023-05-16T20:01:09.908Z,24.09
2023-05-16T20:03:37.455Z,23.88
2023-05-16T20:06:08.109Z,23.80
2023-05-16T20:08:36.178Z,23.70
2023-05-16T20:11:03.912Z,23.75
2023-05-16T20:13:32.494Z,23.74
2023-05-16T20:16:07.427Z,23.71
2023-05-16T20:18:34.815Z,23.70
2023-05-16T20:21:02.465Z,23.33
2023-05-16T20:23:32.088Z,23.15
2023-05-16T20:26:03.167Z,23.09
2023-05-16T20:28:31.067Z,23.01
2023-05-16T20:30:58.569Z,23.47
2023-05-16T20:33:26.085Z,23.69
2023-05-16T20:35:53.448Z,23.74
2023-05-16T20:38:20.650Z,23.77
2023-05-16T20:40:47.904Z,23.79
2023-05-16T20:43:15.197Z,23.81
2023-05-16T20:45:42.664Z,23.37
2023-05-16T20:48:09.882Z,22.99
2023-05-16T20:50:39.222Z,23.11
2023-05-16T20:53:07.355Z,23.11
2023-05-16T20:55:34.643Z,23.20
2023-05-16T21:01:27.178Z,23.08
2023-05-16T21:08:10.168Z,22.62
2023-05-16T21:17:41.138Z,22.43
2023-05-16T21:20:08.892Z,22.42
2023-05-16T21:22:37.195Z,22.37
2023-05-16T21:25:04.902Z,22.34
2023-05-16T21:27:33.357Z,22.26
2023-05-16T21:30:00.749Z,22.20
2023-05-16T21:32:35.334Z,22.19
2023-05-16T21:35:04.521Z,22.11
2023-05-16T21:37:31.813Z,22.03
2023-05-16T21:39:59.023Z,21.98
2023-05-16T21:42:26.211Z,21.96
2023-05-16T21:44:53.403Z,21.93
2023-05-16T21:47:21.173Z,21.94
2023-05-16T21:49:48.444Z,21.92
2023-05-16T21:52:15.636Z,21.94
2023-05-16T21:54:43.283Z,21.95
2023-05-16T21:57:11.367Z,21.92
2023-05-16T21:59:38.439Z,21.85
2023-05-16T22:02:05.565Z,21.96
2023-05-16T22:04:32.870Z,21.93
2023-05-16T22:07:00.141Z,21.94
2023-05-16T22:09:27.452Z,21.93
2023-05-16T22:11:54.645Z,21.92
2023-05-16T22:14:21.824Z,21.88
2023-05-16T22:16:49.167Z,21.86
2023-05-16T22:19:16.532Z,21.82
2023-05-16T22:21:43.737Z,21.79
2023-05-16T22:24:12.135Z,21.78
2023-05-16T22:26:39.539Z,21.75
2023-05-16T22:29:06.833Z,21.73
2023-05-16T22:31:34.227Z,21.72
2023-05-16T22:34:02.173Z,21.70
2023-05-16T22:36:29.483Z,21.65
2023-05-16T22:38:56.723Z,21.66
2023-05-16T22:41:24.024Z,21.65
2023-05-16T22:43:51.078Z,21.66
2023-05-16T22:46:18.353Z,21.65
2023-05-16T22:48:45.591Z,21.62
2023-05-16T22:51:12.819Z,21.64
2023-05-16T22:53:40.780Z,21.60
2023-05-16T22:56:11.033Z,21.58
2023-05-16T22:58:38.387Z,21.59
2023-05-16T23:01:05.860Z,21.55
2023-05-16T23:03:34.571Z,21.58
2023-05-16T23:06:02.272Z,21.56
2023-05-16T23:08:29.647Z,21.54
2023-05-16T23:10:58.399Z,21.61
2023-05-16T23:13:25.581Z,21.95
2023-05-16T23:15:52.754Z,22.13
2023-05-16T23:18:20.135Z,22.19
2023-05-16T23:20:47.436Z,22.11
2023-05-16T23:23:14.930Z,22.11
2023-05-16T23:25:42.322Z,22.15
2023-05-16T23:28:10.534Z,22.18
2023-05-16T23:30:38.144Z,22.22
2023-05-16T23:33:05.449Z,22.20
2023-05-16T23:35:32.817Z,22.19
2023-05-16T23:38:02.959Z,22.25
2023-05-16T23:40:30.069Z,22.16
2023-05-16T23:42:57.221Z,22.23
2023-05-16T23:45:24.356Z,22.09
2023-05-16T23:47:51.638Z,21.66
2023-05-16T23:50:21.526Z,21.86
2023-05-16T23:52:48.855Z,22.13
2023-05-16T23:55:16.762Z,22.24
2023-05-16T23:57:43.977Z,22.32
